sensor_id;sensor_type;location;lat;lon;timestamp;temperature;humidity
49124;DHT22;48506;48.202;16.274;2023-07-13T00:01:31;21.60;99.40
49124;DHT22;48506;48.202;16.274;2023-07-13T00:03:57;21.60;99.30
49124;DHT22;48506;48.202;16.274;2023-07-13T00:06:23;21.60;99.30
49124;DHT22;48506;48.202;16.274;2023-07-13T00:08:49;21.50;99.30
49124;DHT22;48506;48.202;16.274;2023-07-13T00:11:16;21.50;99.40
49124;DHT22;48506;48.202;16.274;2023-07-13T00:13:43;21.50;99.40
49124;DHT22;48506;48.202;16.274;2023-07-13T00:16:11;21.50;99.50
49124;DHT22;48506;48.202;16.274;2023-07-13T00:18:39;21.50;99.50
49124;DHT22;48506;48.202;16.274;2023-07-13T00:21:06;21.50;99.50
49124;DHT22;48506;48.202;16.274;2023-07-13T00:23:33;21.50;99.30
49124;DHT22;48506;48.202;16.274;2023-07-13T00:26:00;21.60;99.30
49124;DHT22;48506;48.202;16.274;2023-07-13T00:28:27;21.60;99.30
49124;DHT22;48506;48.202;16.274;2023-07-13T00:30:53;21.50;99.40
49124;DHT22;48506;48.202;16.274;2023-07-13T00:33:20;21.50;99.50
49124;DHT22;48506;48.202;16.274;2023-07-13T00:35:46;21.40;99.40
49124;DHT22;48506;48.202;16.274;2023-07-13T00:38:12;21.40;99.40
49124;DHT22;48506;48.202;16.274;2023-07-13T00:40:38;21.40;99.40
49124;DHT22;48506;48.202;16.274;2023-07-13T00:43:19;21.40;99.40
49124;DHT22;48506;48.202;16.274;2023-07-13T00:48:32;21.30;99.40
49124;DHT22;48506;48.202;16.274;2023-07-13T00:51:01;21.20;99.40
49124;DHT22;48506;48.202;16.274;2023-07-13T00:53:29;21.20;99.20
49124;DHT22;48506;48.202;16.274;2023-07-13T00:55:56;21.30;99.10
49124;DHT22;48506;48.202;16.274;2023-07-13T00:58:25;21.20;99.00
49124;DHT22;48506;48.202;16.274;2023-07-13T01:00:51;21.20;98.90
49124;DHT22;48506;48.202;16.274;2023-07-13T01:03:18;21.20;98.80
49124;DHT22;48506;48.202;16.274;2023-07-13T01:05:47;21.20;98.70
49124;DHT22;48506;48.202;16.274;2023-07-13T01:08:14;21.20;98.40
49124;DHT22;48506;48.202;16.274;2023-07-13T01:10:40;21.20;97.90
49124;DHT22;48506;48.202;16.274;2023-07-13T01:13:10;21.20;97.70
49124;DHT22;48506;48.202;16.274;2023-07-13T01:15:44;21.20;97.60
49124;DHT22;48506;48.202;16.274;2023-07-13T01:18:31;21.20;97.40
49124;DHT22;48506;48.202;16.274;2023-07-13T01:20:59;21.30;97.80
49124;DHT22;48506;48.202;16.274;2023-07-13T01:23:26;21.30;97.40
49124;DHT22;48506;48.202;16.274;2023-07-13T01:25:53;21.30;96.90
49124;DHT22;48506;48.202;16.274;2023-07-13T01:28:21;21.30;96.80
49124;DHT22;48506;48.202;16.274;2023-07-13T01:30:48;21.40;96.90
49124;DHT22;48506;48.202;16.274;2023-07-13T01:33:16;21.40;96.90
49124;DHT22;48506;48.202;16.274;2023-07-13T01:35:44;21.40;96.40
49124;DHT22;48506;48.202;16.274;2023-07-13T01:38:13;21.40;96.50
49124;DHT22;48506;48.202;16.274;2023-07-13T01:40:40;21.50;96.40
49124;DHT22;48506;48.202;16.274;2023-07-13T01:43:06;21.50;95.90
49124;DHT22;48506;48.202;16.274;2023-07-13T01:45:32;21.50;95.90
49124;DHT22;48506;48.202;16.274;2023-07-13T01:47:58;21.60;95.70
49124;DHT22;48506;48.202;16.274;2023-07-13T01:50:25;21.60;95.30
49124;DHT22;48506;48.202;16.274;2023-07-13T01:52:52;21.70;95.00
49124;DHT22;48506;48.202;16.274;2023-07-13T01:55:19;21.70;95.30
49124;DHT22;48506;48.202;16.274;2023-07-13T01:57:46;21.80;95.00
49124;DHT22;48506;48.202;16.274;2023-07-13T02:00:13;21.90;95.10
49124;DHT22;48506;48.202;16.274;2023-07-13T02:02:39;22.00;94.70
49124;DHT22;48506;48.202;16.274;2023-07-13T02:05:05;22.00;94.50
49124;DHT22;48506;48.202;16.274;2023-07-13T02:07:31;22.10;94.60
49124;DHT22;48506;48.202;16.274;2023-07-13T02:09:57;22.20;94.30
49124;DHT22;48506;48.202;16.274;2023-07-13T02:12:23;22.20;94.40
49124;DHT22;48506;48.202;16.274;2023-07-13T02:14:49;22.20;94.40
49124;DHT22;48506;48.202;16.274;2023-07-13T02:17:15;22.30;94.40
49124;DHT22;48506;48.202;16.274;2023-07-13T02:19:41;22.40;94.20
49124;DHT22;48506;48.202;16.274;2023-07-13T02:22:07;22.40;94.40
49124;DHT22;48506;48.202;16.274;2023-07-13T02:24:33;22.40;94.40
49124;DHT22;48506;48.202;16.274;2023-07-13T02:26:59;22.40;94.00
49124;DHT22;48506;48.202;16.274;2023-07-13T02:29:25;22.40;94.20
49124;DHT22;48506;48.202;16.274;2023-07-13T02:31:51;22.50;94.30
49124;DHT22;48506;48.202;16.274;2023-07-13T02:34:17;22.50;94.20
49124;DHT22;48506;48.202;16.274;2023-07-13T02:36:43;22.50;94.20
49124;DHT22;48506;48.202;16.274;2023-07-13T02:39:11;22.50;94.30
49124;DHT22;48506;48.202;16.274;2023-07-13T02:41:38;22.60;94.20
49124;DHT22;48506;48.202;16.274;2023-07-13T02:44:04;22.60;94.10
49124;DHT22;48506;48.202;16.274;2023-07-13T02:46:31;22.70;94.20
49124;DHT22;48506;48.202;16.274;2023-07-13T02:48:57;22.60;94.20
49124;DHT22;48506;48.202;16.274;2023-07-13T02:51:23;22.70;94.40
49124;DHT22;48506;48.202;16.274;2023-07-13T02:53:49;22.80;94.50
49124;DHT22;48506;48.202;16.274;2023-07-13T02:56:15;22.70;94.40
49124;DHT22;48506;48.202;16.274;2023-07-13T02:58:41;22.70;95.00
49124;DHT22;48506;48.202;16.274;2023-07-13T03:01:09;22.60;95.10
49124;DHT22;48506;48.202;16.274;2023-07-13T03:03:36;22.60;95.40
49124;DHT22;48506;48.202;16.274;2023-07-13T03:06:03;22.50;95.40
49124;DHT22;48506;48.202;16.274;2023-07-13T03:08:31;22.40;95.90
49124;DHT22;48506;48.202;16.274;2023-07-13T03:11:07;22.40;95.90
49124;DHT22;48506;48.202;16.274;2023-07-13T03:13:33;22.30;96.20
49124;DHT22;48506;48.202;16.274;2023-07-13T03:16:00;22.20;96.40
49124;DHT22;48506;48.202;16.274;2023-07-13T03:18:27;22.10;97.10
49124;DHT22;48506;48.202;16.274;2023-07-13T03:20:53;22.10;97.20
49124;DHT22;48506;48.202;16.274;2023-07-13T03:23:20;22.00;97.40
49124;DHT22;48506;48.202;16.274;2023-07-13T03:25:46;22.00;98.00
49124;DHT22;48506;48.202;16.274;2023-07-13T03:28:13;21.90;98.20
49124;DHT22;48506;48.202;16.274;2023-07-13T03:30:39;21.70;98.60
49124;DHT22;48506;48.202;16.274;2023-07-13T03:33:06;21.70;98.90
49124;DHT22;48506;48.202;16.274;2023-07-13T03:35:32;21.50;99.10
49124;DHT22;48506;48.202;16.274;2023-07-13T03:37:59;21.50;99.40
49124;DHT22;48506;48.202;16.274;2023-07-13T03:40:29;21.40;99.50
49124;DHT22;48506;48.202;16.274;2023-07-13T03:42:55;21.30;99.80
49124;DHT22;48506;48.202;16.274;2023-07-13T03:45:21;21.30;99.90
49124;DHT22;48506;48.202;16.274;2023-07-13T03:47:47;21.20;99.90
49124;DHT22;48506;48.202;16.274;2023-07-13T03:50:13;21.20;99.90
49124;DHT22;48506;48.202;16.274;2023-07-13T03:52:39;21.20;99.90
49124;DHT22;48506;48.202;16.274;2023-07-13T03:55:06;21.20;99.90
49124;DHT22;48506;48.202;16.274;2023-07-13T03:57:32;21.10;99.90
49124;DHT22;48506;48.202;16.274;2023-07-13T04:00:00;21.00;99.90
49124;DHT22;48506;48.202;16.274;2023-07-13T04:02:26;21.00;99.90
49124;DHT22;48506;48.202;16.274;2023-07-13T04:04:52;21.00;99.90
49124;DHT22;48506;48.202;16.274;2023-07-13T04:07:19;20.90;99.90
49124;DHT22;48506;48.202;16.274;2023-07-13T04:09:44;20.80;99.90
49124;DHT22;48506;48.202;16.274;2023-07-13T04:12:10;20.80;99.90
49124;DHT22;48506;48.202;16.274;2023-07-13T04:14:37;20.80;99.90
49124;DHT22;48506;48.202;16.274;2023-07-13T04:17:03;20.80;99.90
49124;DHT22;48506;48.202;16.274;2023-07-13T04:19:29;20.80;99.90
49124;DHT22;48506;48.202;16.274;2023-07-13T04:21:55;20.70;99.90
49124;DHT22;48506;48.202;16.274;2023-07-13T04:24:21;20.80;99.90
49124;DHT22;48506;48.202;16.274;2023-07-13T04:26:47;20.80;99.90
49124;DHT22;48506;48.202;16.274;2023-07-13T04:29:13;20.90;99.90
49124;DHT22;48506;48.202;16.274;2023-07-13T04:31:40;20.90;99.90
49124;DHT22;48506;48.202;16.274;2023-07-13T04:34:07;21.00;99.90
49124;DHT22;48506;48.202;16.274;2023-07-13T04:36:33;21.00;99.90
49124;DHT22;48506;48.202;16.274;2023-07-13T04:38:59;20.90;99.90
49124;DHT22;48506;48.202;16.274;2023-07-13T04:41:24;20.80;99.90
49124;DHT22;48506;48.202;16.274;2023-07-13T04:43:50;20.80;99.90
49124;DHT22;48506;48.202;16.274;2023-07-13T04:46:17;20.80;99.90
49124;DHT22;48506;48.202;16.274;2023-07-13T04:48:45;20.80;99.90
49124;DHT22;48506;48.202;16.274;2023-07-13T04:51:11;20.80;99.90
49124;DHT22;48506;48.202;16.274;2023-07-13T04:53:37;20.70;99.90
49124;DHT22;48506;48.202;16.274;2023-07-13T04:56:04;20.70;99.90
49124;DHT22;48506;48.202;16.274;2023-07-13T04:58:31;20.70;99.90
49124;DHT22;48506;48.202;16.274;2023-07-13T05:01:02;20.70;99.90
49124;DHT22;48506;48.202;16.274;2023-07-13T05:03:29;20.70;99.90
49124;DHT22;48506;48.202;16.274;2023-07-13T05:06:00;20.80;99.90
49124;DHT22;48506;48.202;16.274;2023-07-13T05:08:26;20.80;99.90
49124;DHT22;48506;48.202;16.274;2023-07-13T05:10:52;20.90;99.90
49124;DHT22;48506;48.202;16.274;2023-07-13T05:13:18;20.90;99.90
49124;DHT22;48506;48.202;16.274;2023-07-13T05:15:45;20.90;99.90
49124;DHT22;48506;48.202;16.274;2023-07-13T05:18:12;20.90;99.90
49124;DHT22;48506;48.202;16.274;2023-07-13T05:20:37;20.90;99.90
49124;DHT22;48506;48.202;16.274;2023-07-13T05:23:03;21.00;99.90
49124;DHT22;48506;48.202;16.274;2023-07-13T05:25:30;21.00;99.90
49124;DHT22;48506;48.202;16.274;2023-07-13T05:27:55;21.10;99.90
49124;DHT22;48506;48.202;16.274;2023-07-13T05:30:21;21.20;99.90
49124;DHT22;48506;48.202;16.274;2023-07-13T05:32:47;21.20;99.90
49124;DHT22;48506;48.202;16.274;2023-07-13T05:35:13;21.20;99.90
49124;DHT22;48506;48.202;16.274;2023-07-13T05:37:39;21.20;99.90
49124;DHT22;48506;48.202;16.274;2023-07-13T05:40:06;21.20;99.90
49124;DHT22;48506;48.202;16.274;2023-07-13T05:42:32;21.10;99.90
49124;DHT22;48506;48.202;16.274;2023-07-13T05:44:58;21.10;99.90
49124;DHT22;48506;48.202;16.274;2023-07-13T05:47:24;21.10;99.90
49124;DHT22;48506;48.202;16.274;2023-07-13T05:49:50;21.10;99.90
49124;DHT22;48506;48.202;16.274;2023-07-13T05:52:16;21.10;99.90
49124;DHT22;48506;48.202;16.274;2023-07-13T05:54:43;21.10;99.90
49124;DHT22;48506;48.202;16.274;2023-07-13T05:57:09;21.10;99.90
49124;DHT22;48506;48.202;16.274;2023-07-13T05:59:35;21.10;99.90
49124;DHT22;48506;48.202;16.274;2023-07-13T06:02:01;21.10;99.90
49124;DHT22;48506;48.202;16.274;2023-07-13T06:04:27;21.00;99.90
49124;DHT22;48506;48.202;16.274;2023-07-13T06:06:54;21.00;99.90
49124;DHT22;48506;48.202;16.274;2023-07-13T06:09:20;21.00;99.90
49124;DHT22;48506;48.202;16.274;2023-07-13T06:11:45;21.00;99.90
49124;DHT22;48506;48.202;16.274;2023-07-13T06:14:11;21.00;99.90
49124;DHT22;48506;48.202;16.274;2023-07-13T06:16:37;21.00;99.90
49124;DHT22;48506;48.202;16.274;2023-07-13T06:19:03;21.00;99.90
49124;DHT22;48506;48.202;16.274;2023-07-13T06:21:29;21.00;99.90
49124;DHT22;48506;48.202;16.274;2023-07-13T06:23:55;21.00;99.90
49124;DHT22;48506;48.202;16.274;2023-07-13T06:26:21;21.00;99.90
49124;DHT22;48506;48.202;16.274;2023-07-13T06:28:47;21.10;99.90
49124;DHT22;48506;48.202;16.274;2023-07-13T06:31:14;21.10;99.90
49124;DHT22;48506;48.202;16.274;2023-07-13T06:33:41;21.10;99.90
49124;DHT22;48506;48.202;16.274;2023-07-13T06:36:07;21.10;99.90
49124;DHT22;48506;48.202;16.274;2023-07-13T06:38:35;21.10;99.90
49124;DHT22;48506;48.202;16.274;2023-07-13T06:41:01;21.10;99.90
49124;DHT22;48506;48.202;16.274;2023-07-13T06:43:27;21.20;99.90
49124;DHT22;48506;48.202;16.274;2023-07-13T06:45:55;21.20;99.90
49124;DHT22;48506;48.202;16.274;2023-07-13T06:48:22;21.20;99.90
49124;DHT22;48506;48.202;16.274;2023-07-13T06:50:49;21.20;99.90
49124;DHT22;48506;48.202;16.274;2023-07-13T06:53:17;21.20;99.90
49124;DHT22;48506;48.202;16.274;2023-07-13T06:55:45;21.20;99.90
49124;DHT22;48506;48.202;16.274;2023-07-13T06:58:12;21.30;99.90
49124;DHT22;48506;48.202;16.274;2023-07-13T07:00:38;21.30;99.90
49124;DHT22;48506;48.202;16.274;2023-07-13T07:03:06;21.20;99.90
49124;DHT22;48506;48.202;16.274;2023-07-13T07:05:32;21.20;99.90
49124;DHT22;48506;48.202;16.274;2023-07-13T07:07:58;21.30;99.90
49124;DHT22;48506;48.202;16.274;2023-07-13T07:10:24;21.30;99.90
49124;DHT22;48506;48.202;16.274;2023-07-13T07:12:51;21.30;99.90
49124;DHT22;48506;48.202;16.274;2023-07-13T07:15:18;21.40;99.90
49124;DHT22;48506;48.202;16.274;2023-07-13T07:17:44;21.40;99.90
49124;DHT22;48506;48.202;16.274;2023-07-13T07:20:10;21.40;99.90
49124;DHT22;48506;48.202;16.274;2023-07-13T07:22:36;21.50;99.90
49124;DHT22;48506;48.202;16.274;2023-07-13T07:25:03;21.50;99.90
49124;DHT22;48506;48.202;16.274;2023-07-13T07:27:29;21.50;99.90
49124;DHT22;48506;48.202;16.274;2023-07-13T07:29:55;21.60;99.90
49124;DHT22;48506;48.202;16.274;2023-07-13T07:32:23;21.70;99.90
49124;DHT22;48506;48.202;16.274;2023-07-13T07:34:49;21.70;99.90
49124;DHT22;48506;48.202;16.274;2023-07-13T07:37:16;21.80;99.90
49124;DHT22;48506;48.202;16.274;2023-07-13T07:39:43;21.80;99.90
49124;DHT22;48506;48.202;16.274;2023-07-13T07:42:09;21.90;99.90
49124;DHT22;48506;48.202;16.274;2023-07-13T07:44:35;21.90;99.90
49124;DHT22;48506;48.202;16.274;2023-07-13T07:47:01;22.00;99.90
49124;DHT22;48506;48.202;16.274;2023-07-13T07:49:27;22.00;99.90
49124;DHT22;48506;48.202;16.274;2023-07-13T07:51:53;21.90;99.90
49124;DHT22;48506;48.202;16.274;2023-07-13T07:54:19;21.90;99.90
49124;DHT22;48506;48.202;16.274;2023-07-13T07:56:45;22.00;99.90
49124;DHT22;48506;48.202;16.274;2023-07-13T07:59:11;22.10;99.90
49124;DHT22;48506;48.202;16.274;2023-07-13T08:01:37;22.20;99.90
49124;DHT22;48506;48.202;16.274;2023-07-13T08:04:06;22.30;99.90
49124;DHT22;48506;48.202;16.274;2023-07-13T08:06:33;22.30;99.90
49124;DHT22;48506;48.202;16.274;2023-07-13T08:08:59;22.30;99.90
49124;DHT22;48506;48.202;16.274;2023-07-13T08:11:26;22.40;99.90
49124;DHT22;48506;48.202;16.274;2023-07-13T08:13:52;22.40;99.90
49124;DHT22;48506;48.202;16.274;2023-07-13T08:16:18;22.50;99.90
49124;DHT22;48506;48.202;16.274;2023-07-13T08:18:44;22.70;99.90
49124;DHT22;48506;48.202;16.274;2023-07-13T08:21:10;23.00;99.90
49124;DHT22;48506;48.202;16.274;2023-07-13T08:23:36;23.40;99.90
49124;DHT22;48506;48.202;16.274;2023-07-13T08:26:03;23.80;99.90
49124;DHT22;48506;48.202;16.274;2023-07-13T08:28:30;24.00;99.30
49124;DHT22;48506;48.202;16.274;2023-07-13T08:31:02;23.90;98.70
49124;DHT22;48506;48.202;16.274;2023-07-13T08:33:29;24.00;99.40
49124;DHT22;48506;48.202;16.274;2023-07-13T08:35:55;24.00;99.30
49124;DHT22;48506;48.202;16.274;2023-07-13T08:38:20;24.00;98.80
49124;DHT22;48506;48.202;16.274;2023-07-13T08:40:53;23.90;98.90
49124;DHT22;48506;48.202;16.274;2023-07-13T08:43:27;24.00;98.50
49124;DHT22;48506;48.202;16.274;2023-07-13T08:48:59;24.20;98.10
49124;DHT22;48506;48.202;16.274;2023-07-13T08:51:51;24.50;97.80
49124;DHT22;48506;48.202;16.274;2023-07-13T08:54:43;24.60;97.60
49124;DHT22;48506;48.202;16.274;2023-07-13T08:57:14;24.90;97.00
49124;DHT22;48506;48.202;16.274;2023-07-13T08:59:41;25.00;95.70
49124;DHT22;48506;48.202;16.274;2023-07-13T09:04:48;25.40;96.50
49124;DHT22;48506;48.202;16.274;2023-07-13T09:17:52;25.80;94.90
49124;DHT22;48506;48.202;16.274;2023-07-13T09:20:34;25.60;94.30
49124;DHT22;48506;48.202;16.274;2023-07-13T09:23:04;25.40;95.00
49124;DHT22;48506;48.202;16.274;2023-07-13T09:25:35;25.50;94.70
49124;DHT22;48506;48.202;16.274;2023-07-13T09:28:15;25.60;94.30
49124;DHT22;48506;48.202;16.274;2023-07-13T09:30:50;25.70;94.60
49124;DHT22;48506;48.202;16.274;2023-07-13T09:33:21;25.80;93.90
49124;DHT22;48506;48.202;16.274;2023-07-13T09:35:49;25.80;94.20
49124;DHT22;48506;48.202;16.274;2023-07-13T09:38:18;25.80;93.80
49124;DHT22;48506;48.202;16.274;2023-07-13T09:43:28;26.50;93.70
49124;DHT22;48506;48.202;16.274;2023-07-13T09:45:55;26.80;92.90
49124;DHT22;48506;48.202;16.274;2023-07-13T09:48:22;27.00;92.40
49124;DHT22;48506;48.202;16.274;2023-07-13T09:50:55;27.30;92.50
49124;DHT22;48506;48.202;16.274;2023-07-13T09:53:23;27.60;91.40
49124;DHT22;48506;48.202;16.274;2023-07-13T09:55:49;27.80;91.30
49124;DHT22;48506;48.202;16.274;2023-07-13T09:58:18;27.90;88.80
49124;DHT22;48506;48.202;16.274;2023-07-13T10:01:02;27.90;87.90
49124;DHT22;48506;48.202;16.274;2023-07-13T10:03:34;27.70;86.70
49124;DHT22;48506;48.202;16.274;2023-07-13T10:06:15;27.50;90.10
49124;DHT22;48506;48.202;16.274;2023-07-13T10:08:41;27.50;88.90
49124;DHT22;48506;48.202;16.274;2023-07-13T10:16:29;27.70;88.90
49124;DHT22;48506;48.202;16.274;2023-07-13T10:19:02;28.00;89.50
49124;DHT22;48506;48.202;16.274;2023-07-13T10:21:38;28.00;86.40
49124;DHT22;48506;48.202;16.274;2023-07-13T10:24:19;28.10;86.40
49124;DHT22;48506;48.202;16.274;2023-07-13T10:26:57;28.20;87.80
49124;DHT22;48506;48.202;16.274;2023-07-13T10:29:27;28.50;88.30
49124;DHT22;48506;48.202;16.274;2023-07-13T10:31:54;28.90;88.90
49124;DHT22;48506;48.202;16.274;2023-07-13T10:34:22;28.90;84.00
49124;DHT22;48506;48.202;16.274;2023-07-13T10:36:49;28.60;85.20
49124;DHT22;48506;48.202;16.274;2023-07-13T10:39:21;28.30;85.00
49124;DHT22;48506;48.202;16.274;2023-07-13T10:41:57;28.00;84.90
49124;DHT22;48506;48.202;16.274;2023-07-13T10:44:28;27.60;85.50
49124;DHT22;48506;48.202;16.274;2023-07-13T10:49:31;27.30;86.80
49124;DHT22;48506;48.202;16.274;2023-07-13T10:51:57;27.10;86.00
49124;DHT22;48506;48.202;16.274;2023-07-13T10:54:33;27.10;86.70
49124;DHT22;48506;48.202;16.274;2023-07-13T10:57:22;27.10;86.70
49124;DHT22;48506;48.202;16.274;2023-07-13T11:00:14;27.10;86.30
49124;DHT22;48506;48.202;16.274;2023-07-13T11:02:41;27.10;84.90
49124;DHT22;48506;48.202;16.274;2023-07-13T11:05:32;27.10;85.40
49124;DHT22;48506;48.202;16.274;2023-07-13T11:08:35;27.20;83.70
49124;DHT22;48506;48.202;16.274;2023-07-13T11:18:48;27.50;83.20
49124;DHT22;48506;48.202;16.274;2023-07-13T11:21:22;27.40;82.80
49124;DHT22;48506;48.202;16.274;2023-07-13T11:23:54;27.40;83.80
49124;DHT22;48506;48.202;16.274;2023-07-13T11:29:36;27.20;84.20
49124;DHT22;48506;48.202;16.274;2023-07-13T11:32:24;27.30;85.10
49124;DHT22;48506;48.202;16.274;2023-07-13T11:34:53;27.50;82.90
49124;DHT22;48506;48.202;16.274;2023-07-13T11:37:22;27.60;82.70
49124;DHT22;48506;48.202;16.274;2023-07-13T11:39:51;27.50;84.10
49124;DHT22;48506;48.202;16.274;2023-07-13T11:42:18;27.70;81.60
49124;DHT22;48506;48.202;16.274;2023-07-13T11:44:50;27.80;82.70
49124;DHT22;48506;48.202;16.274;2023-07-13T11:47:22;28.00;80.40
49124;DHT22;48506;48.202;16.274;2023-07-13T11:49:52;28.20;80.40
49124;DHT22;48506;48.202;16.274;2023-07-13T11:52:27;28.30;80.30
49124;DHT22;48506;48.202;16.274;2023-07-13T11:54:57;28.50;80.10
49124;DHT22;48506;48.202;16.274;2023-07-13T11:59:55;29.00;80.30
49124;DHT22;48506;48.202;16.274;2023-07-13T12:02:37;29.20;80.20
49124;DHT22;48506;48.202;16.274;2023-07-13T12:05:05;29.50;79.00
49124;DHT22;48506;48.202;16.274;2023-07-13T12:07:33;29.40;77.20
49124;DHT22;48506;48.202;16.274;2023-07-13T12:13:03;29.30;76.70
49124;DHT22;48506;48.202;16.274;2023-07-13T12:15:43;29.50;75.70
49124;DHT22;48506;48.202;16.274;2023-07-13T12:18:18;29.50;74.00
49124;DHT22;48506;48.202;16.274;2023-07-13T12:20:45;29.30;74.00
49124;DHT22;48506;48.202;16.274;2023-07-13T12:25:52;29.10;75.10
49124;DHT22;48506;48.202;16.274;2023-07-13T12:28:33;29.20;76.00
49124;DHT22;48506;48.202;16.274;2023-07-13T12:31:01;29.40;76.80
49124;DHT22;48506;48.202;16.274;2023-07-13T12:33:32;29.30;76.10
49124;DHT22;48506;48.202;16.274;2023-07-13T12:36:02;29.10;75.90
49124;DHT22;48506;48.202;16.274;2023-07-13T12:38:31;28.90;77.20
49124;DHT22;48506;48.202;16.274;2023-07-13T12:40:57;28.90;77.70
49124;DHT22;48506;48.202;16.274;2023-07-13T12:43:24;28.90;76.90
49124;DHT22;48506;48.202;16.274;2023-07-13T12:46:02;28.90;77.40
49124;DHT22;48506;48.202;16.274;2023-07-13T12:48:29;28.90;77.30
49124;DHT22;48506;48.202;16.274;2023-07-13T12:50:56;29.10;76.80
49124;DHT22;48506;48.202;16.274;2023-07-13T12:53:30;29.30;78.50
49124;DHT22;48506;48.202;16.274;2023-07-13T12:56:02;29.50;77.70
49124;DHT22;48506;48.202;16.274;2023-07-13T12:58:35;29.50;76.40
49124;DHT22;48506;48.202;16.274;2023-07-13T13:01:02;29.30;75.70
49124;DHT22;48506;48.202;16.274;2023-07-13T13:03:35;29.10;77.00
49124;DHT22;48506;48.202;16.274;2023-07-13T13:06:06;28.90;77.20
49124;DHT22;48506;48.202;16.274;2023-07-13T13:08:36;28.90;76.60
49124;DHT22;48506;48.202;16.274;2023-07-13T13:11:02;29.00;77.30
49124;DHT22;48506;48.202;16.274;2023-07-13T13:13:29;28.90;77.10
49124;DHT22;48506;48.202;16.274;2023-07-13T13:15:55;28.80;76.30
49124;DHT22;48506;48.202;16.274;2023-07-13T13:18:23;28.70;76.30
49124;DHT22;48506;48.202;16.274;2023-07-13T13:20:51;28.60;75.70
49124;DHT22;48506;48.202;16.274;2023-07-13T13:23:19;28.60;76.10
49124;DHT22;48506;48.202;16.274;2023-07-13T13:25:49;28.60;77.40
49124;DHT22;48506;48.202;16.274;2023-07-13T13:28:19;28.70;76.90
49124;DHT22;48506;48.202;16.274;2023-07-13T13:30:47;28.90;76.70
49124;DHT22;48506;48.202;16.274;2023-07-13T13:33:16;28.80;76.60
49124;DHT22;48506;48.202;16.274;2023-07-13T13:35:46;28.80;77.70
49124;DHT22;48506;48.202;16.274;2023-07-13T13:38:20;28.90;76.70
49124;DHT22;48506;48.202;16.274;2023-07-13T13:40:49;28.90;74.90
49124;DHT22;48506;48.202;16.274;2023-07-13T13:43:25;28.80;75.00
49124;DHT22;48506;48.202;16.274;2023-07-13T13:45:57;28.60;75.00
49124;DHT22;48506;48.202;16.274;2023-07-13T13:48:33;28.40;75.30
49124;DHT22;48506;48.202;16.274;2023-07-13T13:51:00;28.30;75.60
49124;DHT22;48506;48.202;16.274;2023-07-13T13:53:27;28.40;76.90
49124;DHT22;48506;48.202;16.274;2023-07-13T13:55:53;28.50;76.10
49124;DHT22;48506;48.202;16.274;2023-07-13T13:58:20;28.50;76.70
49124;DHT22;48506;48.202;16.274;2023-07-13T14:00:48;28.40;75.50
49124;DHT22;48506;48.202;16.274;2023-07-13T14:03:17;28.40;74.80
49124;DHT22;48506;48.202;16.274;2023-07-13T14:05:44;28.30;76.60
49124;DHT22;48506;48.202;16.274;2023-07-13T14:08:19;28.30;76.50
49124;DHT22;48506;48.202;16.274;2023-07-13T14:10:47;28.20;75.40
49124;DHT22;48506;48.202;16.274;2023-07-13T14:13:23;28.10;74.40
49124;DHT22;48506;48.202;16.274;2023-07-13T14:15:53;27.90;75.50
49124;DHT22;48506;48.202;16.274;2023-07-13T14:18:19;27.70;74.90
49124;DHT22;48506;48.202;16.274;2023-07-13T14:20:47;27.60;77.20
49124;DHT22;48506;48.202;16.274;2023-07-13T14:23:15;27.60;75.90
49124;DHT22;48506;48.202;16.274;2023-07-13T14:25:42;27.60;76.60
49124;DHT22;48506;48.202;16.274;2023-07-13T14:28:24;27.50;76.70
49124;DHT22;48506;48.202;16.274;2023-07-13T14:30:51;27.40;76.80
49124;DHT22;48506;48.202;16.274;2023-07-13T14:33:17;27.50;78.00
49124;DHT22;48506;48.202;16.274;2023-07-13T14:35:43;27.50;75.80
49124;DHT22;48506;48.202;16.274;2023-07-13T14:38:18;27.40;77.00
49124;DHT22;48506;48.202;16.274;2023-07-13T14:40:46;27.40;76.40
49124;DHT22;48506;48.202;16.274;2023-07-13T14:43:16;27.40;77.80
49124;DHT22;48506;48.202;16.274;2023-07-13T14:45:51;27.40;78.30
49124;DHT22;48506;48.202;16.274;2023-07-13T14:48:24;27.50;76.80
49124;DHT22;48506;48.202;16.274;2023-07-13T14:50:56;27.40;76.70
49124;DHT22;48506;48.202;16.274;2023-07-13T14:53:24;27.30;77.20
49124;DHT22;48506;48.202;16.274;2023-07-13T14:55:50;27.30;77.30
49124;DHT22;48506;48.202;16.274;2023-07-13T14:58:16;27.20;77.80
49124;DHT22;48506;48.202;16.274;2023-07-13T15:00:42;27.00;77.50
49124;DHT22;48506;48.202;16.274;2023-07-13T15:03:23;27.00;78.60
49124;DHT22;48506;48.202;16.274;2023-07-13T15:05:51;26.90;78.50
49124;DHT22;48506;48.202;16.274;2023-07-13T15:08:17;26.90;78.30
49124;DHT22;48506;48.202;16.274;2023-07-13T15:10:43;26.90;77.90
49124;DHT22;48506;48.202;16.274;2023-07-13T15:13:18;26.80;78.10
49124;DHT22;48506;48.202;16.274;2023-07-13T15:15:47;26.80;78.40
49124;DHT22;48506;48.202;16.274;2023-07-13T15:18:16;26.90;79.40
49124;DHT22;48506;48.202;16.274;2023-07-13T15:20:45;26.90;80.20
49124;DHT22;48506;48.202;16.274;2023-07-13T15:23:14;26.90;79.20
49124;DHT22;48506;48.202;16.274;2023-07-13T15:25:41;26.90;78.20
49124;DHT22;48506;48.202;16.274;2023-07-13T15:28:08;26.80;79.20
49124;DHT22;48506;48.202;16.274;2023-07-13T15:30:46;26.80;78.80
49124;DHT22;48506;48.202;16.274;2023-07-13T15:33:25;26.70;78.80
49124;DHT22;48506;48.202;16.274;2023-07-13T15:35:53;26.70;78.80
49124;DHT22;48506;48.202;16.274;2023-07-13T15:38:25;26.60;79.10
49124;DHT22;48506;48.202;16.274;2023-07-13T15:40:52;26.60;79.00
49124;DHT22;48506;48.202;16.274;2023-07-13T15:43:19;26.50;80.00
49124;DHT22;48506;48.202;16.274;2023-07-13T15:45:46;26.50;79.90
49124;DHT22;48506;48.202;16.274;2023-07-13T15:48:17;26.50;80.00
49124;DHT22;48506;48.202;16.274;2023-07-13T15:50:52;26.40;79.50
49124;DHT22;48506;48.202;16.274;2023-07-13T15:53:23;26.40;79.40
49124;DHT22;48506;48.202;16.274;2023-07-13T15:55:51;26.20;79.80
49124;DHT22;48506;48.202;16.274;2023-07-13T15:58:18;26.20;80.20
49124;DHT22;48506;48.202;16.274;2023-07-13T16:00:44;26.20;79.90
49124;DHT22;48506;48.202;16.274;2023-07-13T16:03:11;26.10;80.50
49124;DHT22;48506;48.202;16.274;2023-07-13T16:05:38;26.20;81.00
49124;DHT22;48506;48.202;16.274;2023-07-13T16:08:05;26.10;80.00
49124;DHT22;48506;48.202;16.274;2023-07-13T16:10:36;26.00;79.90
49124;DHT22;48506;48.202;16.274;2023-07-13T16:13:16;25.80;80.30